Etusivu
METAR-TAF:

METAR-TAF

Lentoasemat :

Tomahawk Regional Airport

Tomahawk, Wisconsin, Yhdysvallat

Leveyspiiri: 45-28-08N, Pituuspiiri: 089-48-20W, korkeus merenpinnasta: 453 m

Tämänhetkinen sää

Tämä raportti tehtiin 15 minuuttia sitten, kello 03.55 UTC
Tuuli 5 kn pohjoisesta
Lämpötila 3°C
Kosteus 93%
Ilmanpaine 1015 hPa
Näkyvyys: 16.1 km
Pilvistä 800 ft:n korkeudessa

METAR: KTKV 230355Z AUTO 01005KT 10SM OVC008 03/02 A2998 RMK AO2 T00340024

Aika: 23:10 (04:10 UTC)


TAF: puuttuu

Säähavainnot ja -ennusteet yli 4000 lentoasemalta (METAR- ja TAF-raportit).

Käytössä olevat sääasemat on merkitty karttaan keltaisilla ja punaisilla pisteillä.

Aseta hiiri pisteen päälle nähdäksesi sääaseman nimen.

Klikkaa sitten nähdäksesi säähavainnot ja -ennusteet.

Kartan vaihtaminen: klikkaa mustalla rastilla varustettuja vihreitä pisteitä, niin voit zoomata sisään; viivalla varustettua vihreää pistettä, niin voit zoomata ulos tai vihreitä nuolia, niin pääset viereisille kartoille.


METAR-TAF: